Service Notice

This observation station is currently unavailable due to a loss of power in the area.

Work to restore the service will be undertaken as soon as it is safe to do so.

The Bureau's national resources allow our meteorologists to produce accurate and timely forecasts and warnings in areas without observations, including for the locations around this station site. Search for forcast by town, city, post code or lat/lon here or find the location on the MetEye map.

Latest Weather Observations for Cabramurra

IDN60801

Issued at 4:13 pm EST Sunday 11 April 2021 (issued every 10 minutes, with the page automatically refreshed every 10 minutes)

About weather observations | Map of weather stations | Latest weather observations for NSW | Other Formats
Station Details ID: 072161 Name: CABRAMURRA SMHEA AWS Lat: -35.94 Lon: 148.38 Height: 1482.4 m
Data from the previous 72 hours. | See also: Recent months at Cabramurra
Date/Time
EST
Temp
°C
App
Temp
°C
Dew
Point
°C
Rel
Hum
%
Delta-T
°C
Wind Press
QNH
hPa
Press
MSL
hPa
Rain since
9am
mm
Dir  Spd
km/h
Gust
km/h
Spd
kts
Gust
kts
11/04:00pm 0.0 -7.3 0.0 100 0.0 W 28 39 15 21 - - 1.8
11/03:30pm -0.1 -7.0 -0.1 100 0.0 WSW 26 37 14 20 - - 1.8
11/03:00pm -0.4 -7.0 -0.4 100 0.0 WSW 24 39 13 21 - - 1.8
11/02:30pm -0.4 -7.0 -0.4 100 0.0 WSW 24 35 13 19 - - 1.6
11/02:00pm -0.5 -6.7 -0.5 100 0.0 W 22 35 12 19 - - 1.4
11/01:30pm -0.5 -6.4 -0.5 100 0.0 W 20 33 11 18 - - 1.0
11/01:00pm -0.2 -6.4 -0.2 100 0.0 W 22 33 12 18 - - 0.0
11/12:30pm -0.6 -6.5 -0.6 100 0.0 W 20 30 11 16 - - 0.0
11/12:00pm -0.8 -6.5 -0.8 100 0.0 WSW 19 32 10 17 - - 0.0
11/11:30am -1.0 -7.3 -1.0 100 0.0 WSW 22 32 12 17 - - 0.0
11/11:00am -1.1 -7.0 -1.1 100 0.0 W 20 32 11 17 - - 0.0
11/10:30am -1.3 -6.3 -1.3 100 0.0 W 15 20 8 11 - - 0.0
11/10:00am -1.5 -7.5 -1.5 100 0.0 WSW 20 32 11 17 - - 0.0
11/09:30am -1.7 -7.7 -1.7 100 0.0 WSW 20 32 11 17 - - 0.0
11/09:00am -1.8 -7.8 -1.9 99 -0.1 WSW 20 32 11 17 - - 6.8
11/08:30am -1.8 -8.2 -1.9 99 -0.1 WSW 22 35 12 19 - - 6.8
11/08:00am -2.1 -9.7 -2.2 99 -0.1 WSW 28 48 15 26 - - 6.8
11/07:59am -2.1 -9.7 -2.2 99 -0.1 WSW 28 48 15 26 - - 6.8
11/07:30am -2.1 -8.9 -2.2 99 -0.1 WSW 24 39 13 21 - - 6.8
11/07:00am -2.1 -8.2 -2.2 99 -0.1 WSW 20 33 11 18 - - 6.8
11/06:30am -1.9 -8.7 -1.9 100 0.0 WSW 24 41 13 22 - - 6.8
11/06:00am -1.8 -8.6 -1.9 99 -0.1 WSW 24 32 13 17 - - 6.8
11/05:30am -1.6 -9.1 -1.6 100 0.0 WSW 28 46 15 25 - - 6.8
11/05:08am -1.5 -9.0 -1.5 100 0.0 WSW 28 48 15 26 - - 6.8
11/05:00am -1.2 -8.7 -1.2 100 0.0 WSW 28 43 15 23 - - 6.8
11/04:39am -1.1 -8.6 -1.1 100 0.0 WSW 28 50 15 27 - - 6.8
11/04:30am -1.0 -6.0 -1.0 100 0.0 WSW 15 26 8 14 - - 6.8
11/04:08am -0.8 -9.5 -0.8 100 0.0 WSW 35 54 19 29 - - 6.8
11/04:00am -0.8 -9.5 -0.8 100 0.0 WSW 35 52 19 28 - - 6.8
11/03:31am -0.4 -9.5 -0.4 100 0.0 WSW 37 57 20 31 - - 6.8
11/03:30am -0.3 -9.4 -0.3 100 0.0 WSW 37 57 20 31 - - 6.8
11/03:03am 0.2 -7.8 0.2 100 0.0 W 32 50 17 27 - - 6.6
11/03:00am 0.4 -7.8 0.4 100 0.0 W 33 50 18 27 - - 6.6
11/02:30am 0.7 -8.6 0.7 100 0.0 W 39 69 21 37 - - 6.6
11/02:00am 0.8 -8.5 0.8 100 0.0 W 39 69 21 37 - - 6.6
11/01:30am 1.4 -7.8 1.4 100 0.0 W 39 63 21 34 - - 6.4
11/01:00am 1.8 -8.6 1.8 100 0.0 W 46 72 25 39 - - 6.4
11/12:57am 1.8 -8.6 1.8 100 0.0 W 46 72 25 39 - - 6.4
11/12:44am 1.9 -6.8 1.9 100 0.0 WNW 37 83 20 45 - - 6.4
11/12:30am 2.2 -6.8 2.2 100 0.0 WNW 39 59 21 32 - - 6.4
11/12:27am 2.2 -6.5 2.2 100 0.0 WNW 37 59 20 32 - - 6.4
11/12:23am 2.2 -6.5 2.2 100 0.0 WNW 37 50 20 27 - - 6.4
11/12:01am 1.8 -7.3 1.8 100 0.0 W 39 61 21 33 - - 6.4
11/12:00am 1.8 -7.7 1.8 100 0.0 W 41 67 22 36 - - 6.4
 
Date/Time
EST
Temp
°C
App
Temp
°C
Dew
Point
°C
Rel
Hum
%
Delta-T
°C
Wind Press
QNH
hPa
Press
MSL
hPa
Rain since
9am
mm
Dir  Spd
km/h
Gust
km/h
Spd
kts
Gust
kts
10/11:59pm 1.8 -8.3 1.8 100 0.0 W 44 82 24 44 - - 6.4
10/11:30pm 3.3 -5.6 3.3 100 0.0 W 39 70 21 38 - - 2.8
10/11:00pm 3.6 -5.2 3.6 100 0.0 WNW 39 65 21 35 - - 2.8
10/10:30pm 3.6 -4.1 3.6 100 0.0 W 33 52 18 28 - - 2.8
10/10:00pm 3.7 -4.3 3.7 100 0.0 W 35 56 19 30 - - 2.8
10/09:30pm 3.9 -4.5 3.9 100 0.0 W 37 63 20 34 - - 2.8
10/09:25pm 3.8 -4.2 3.8 100 0.0 W 35 63 19 34 - - 2.8
10/09:24pm 3.8 -3.8 3.8 100 0.0 W 33 63 18 34 - - 2.8
10/09:00pm 3.7 -3.9 3.7 100 0.0 NW 33 52 18 28 - - 2.4
10/08:30pm 4.0 -3.0 4.0 100 0.0 W 30 48 16 26 - - 2.4
10/08:29pm 4.0 -2.6 4.0 100 0.0 WNW 28 48 15 26 - - 2.4
10/08:00pm 3.9 -2.4 3.9 100 0.0 W 26 44 14 24 - - 2.4
10/07:47pm 3.9 -2.8 3.9 100 0.0 W 28 46 15 25 - - 2.0
10/07:30pm 3.9 -3.1 3.9 100 0.0 WNW 30 44 16 24 - - 1.6
10/07:00pm 3.9 -3.5 3.9 100 0.0 WNW 32 46 17 25 - - 0.0
10/06:30pm 3.8 -2.5 3.8 100 0.0 WNW 26 37 14 20 - - 0.0
10/06:15pm 3.7 -3.0 3.7 100 0.0 WNW 28 46 15 25 - - 0.0
10/06:00pm 3.7 -2.6 3.7 100 0.0 WNW 26 43 14 23 - - 0.0
10/05:30pm 3.6 -3.1 3.6 100 0.0 W 28 43 15 23 - - 0.0
10/05:00pm 3.6 -2.7 3.6 100 0.0 W 26 39 14 21 - - 0.0
10/04:35pm 3.3 -3.5 3.3 100 0.0 W 28 46 15 25 - - 0.0
10/04:30pm 3.3 -2.7 3.3 100 0.0 W 24 35 13 19 - - 0.0
10/04:00pm 3.1 -2.6 3.1 100 0.0 W 22 35 12 19 - - 0.0
10/03:30pm 3.0 -3.1 3.0 100 0.0 W 24 33 13 18 - - 0.0
10/03:00pm 2.8 -3.7 2.7 99 0.0 W 26 37 14 20 - - 0.0
10/02:30pm 2.9 -2.4 2.8 99 0.0 W 20 32 11 17 - - 0.0
10/02:00pm 2.9 -2.2 2.8 99 0.0 W 19 28 10 15 - - 0.0
10/01:30pm 2.6 -3.2 2.5 99 0.0 W 22 37 12 20 - - 0.0
10/01:00pm 2.7 -3.4 2.6 99 0.0 W 24 35 13 19 - - 0.0
10/12:30pm 2.9 -3.2 2.8 99 0.0 W 24 35 13 19 - - 0.0
10/12:00pm 2.6 -2.6 2.6 100 0.0 W 19 30 10 16 - - 0.0
10/11:30am 2.2 -3.0 2.2 100 0.0 WNW 19 32 10 17 - - 0.0
10/11:00am 2.1 -2.8 2.1 100 0.0 W 17 28 9 15 - - 0.0
10/10:30am 2.1 -1.3 2.1 100 0.0 W 9 17 5 9 - - 0.0
10/10:00am 2.0 -3.5 2.0 100 0.0 W 20 33 11 18 - - 0.0
10/09:30am 2.0 -3.9 2.0 100 0.0 W 22 39 12 21 - - 0.0
10/09:00am 1.7 -5.0 1.7 100 0.0 W 26 37 14 20 - - 0.0
10/08:30am 1.6 -3.4 1.6 100 0.0 W 17 30 9 16 - - 0.0
10/08:00am 1.7 -4.2 1.7 100 0.0 W 22 35 12 19 - - 0.0
10/07:30am 1.9 -5.1 1.9 100 0.0 WNW 28 41 15 22 - - 0.0
10/07:00am 2.1 -3.4 2.1 100 0.0 W 20 32 11 17 - - 0.0
10/06:30am 2.4 -3.0 2.4 100 0.0 W 20 30 11 16 - - 0.0
10/06:00am 3.1 -0.9 3.1 100 0.0 WNW 13 22 7 12 - - 0.0
10/05:30am 3.0 -1.0 3.0 100 0.0 WNW 13 19 7 10 - - 0.0
10/05:00am 3.1 -0.9 3.1 100 0.0 WNW 13 20 7 11 - - 0.0
10/04:30am 3.2 -0.4 3.1 99 0.0 NW 11 15 6 8 - - 0.0
10/04:00am 3.2 0.0 3.1 99 0.0 NW 9 13 5 7 - - 0.0
10/03:30am 3.3 -0.6 3.2 99 0.0 NNW 13 19 7 10 - - 0.0
10/03:00am 3.0 -0.6 2.9 99 0.0 N 11 15 6 8 - - 0.0
10/02:30am 3.0 -1.4 2.9 99 0.0 NNW 15 20 8 11 - - 0.0
10/02:00am 3.3 -0.6 3.2 99 0.0 NNW 13 20 7 11 - - 0.0
10/01:30am 3.8 2.0 3.2 96 0.3 NNW 2 13 1 7 - - 0.0
10/01:00am 3.6 0.5 3.5 99 0.0 N 9 15 5 8 - - 0.0
10/12:30am 4.0 0.1 3.6 97 0.2 NNW 13 17 7 9 - - 0.0
10/12:00am 4.3 1.5 3.1 92 0.5 NNE 7 9 4 5 - - 0.0
 
Date/Time
EST
Temp
°C
App
Temp
°C
Dew
Point
°C
Rel
Hum
%
Delta-T
°C
Wind Press
QNH
hPa
Press
MSL
hPa
Rain since
9am
mm
Dir  Spd
km/h
Gust
km/h
Spd
kts
Gust
kts
09/11:30pm 4.2 0.2 2.6 89 0.7 NW 13 15 7 8 - - 0.0
09/11:00pm 4.5 0.4 2.5 87 0.9 WNW 13 17 7 9 - - 0.0
09/10:30pm 5.0 1.0 2.9 86 0.9 NW 13 15 7 8 - - 0.0
09/10:00pm 5.2 1.7 3.4 88 0.8 NW 11 15 6 8 - - 0.0
09/09:30pm 5.3 2.2 3.5 88 0.8 W 9 13 5 7 - - 0.0
09/09:00pm 5.7 2.6 3.4 85 1.1 NW 9 13 5 7 - - 0.0
09/08:30pm 6.4 3.3 3.6 82 1.3 W 9 17 5 9 - - 0.0
09/08:00pm 6.7 2.9 3.9 82 1.3 W 13 22 7 12 - - 0.0
09/07:30pm 7.5 3.1 4.6 82 1.4 WNW 17 26 9 14 - - 0.0
09/07:00pm 8.1 3.8 5.2 82 1.4 WNW 17 32 9 17 - - 0.0
09/06:30pm 8.6 4.0 5.4 80 1.6 W 19 30 10 16 - - 0.0
09/06:00pm 9.3 3.0 5.5 77 1.9 WNW 28 39 15 21 - - 0.0
09/05:30pm 10.0 4.3 5.0 71 2.5 WNW 24 39 13 21 - - 0.0
09/05:00pm 11.2 4.5 3.7 60 3.6 W 28 39 15 21 - - 0.0
09/04:46pm 11.5 4.6 4.7 63 3.4 WNW 30 48 16 26 - - 0.0
09/04:30pm 11.5 5.1 5.2 65 3.2 W 28 44 15 24 - - 0.0
09/04:07pm 12.5 5.7 5.0 60 3.8 W 30 48 16 26 - - 0.0
09/04:00pm 12.6 5.6 4.3 57 4.1 W 30 43 16 23 - - 0.0
09/03:30pm 12.7 5.6 3.6 54 4.4 W 30 48 16 26 - - 0.0
09/03:00pm 13.3 6.2 5.7 60 3.9 W 32 52 17 28 - - 0.0
09/02:30pm 13.3 7.4 7.3 67 3.2 WNW 28 46 15 25 - - 0.0
09/02:11pm 12.8 6.7 6.6 66 3.2 WNW 28 46 15 25 - - 0.0
09/02:00pm 12.9 5.3 6.0 63 3.5 WNW 35 54 19 29 - - 0.0
09/01:30pm 13.0 6.1 6.6 65 3.3 W 32 50 17 27 - - 0.0
09/01:00pm 11.6 5.0 7.9 78 2.0 W 32 54 17 29 - - 0.0
09/12:30pm 11.9 5.5 9.3 84 1.4 W 33 54 18 29 - - 0.0
09/12:17pm 11.1 4.4 8.3 83 1.5 W 33 56 18 30 - - 0.0
09/12:00pm 12.0 5.8 9.4 84 1.4 WNW 32 48 17 26 - - 0.0
09/11:30am 11.1 4.4 8.3 83 1.5 W 33 50 18 27 - - 0.0
09/11:12am 12.4 6.0 8.7 78 2.0 WNW 32 50 17 27 - - 0.0
09/11:00am 11.7 5.8 7.6 76 2.2 W 28 44 15 24 - - 0.0
09/10:31am 12.2 4.6 7.7 74 2.4 WNW 37 61 20 33 - - 0.0
09/10:30am 12.7 5.7 8.4 75 2.3 WNW 35 52 19 28 - - 0.0
09/10:05am 11.4 4.0 6.9 74 2.3 W 35 54 19 29 - - 0.0
09/10:00am 11.5 4.2 7.4 76 2.1 W 35 52 19 28 - - 0.0
09/09:46am 11.3 2.4 7.0 75 2.2 W 43 61 23 33 - - 0.0
09/09:30am 11.3 3.5 8.3 82 1.6 W 39 52 21 28 - - 0.0
09/09:00am 10.8 4.6 7.9 82 1.5 W 30 43 16 23 - - 0.0
09/08:30am 10.2 5.4 7.4 83 1.5 W 22 33 12 18 - - 0.0
09/08:00am 9.8 4.3 7.4 85 1.2 W 26 39 14 21 - - 0.0
09/07:35am 10.0 3.2 7.1 82 1.5 W 32 50 17 27 - - 0.0
09/07:30am 10.1 3.8 7.5 84 1.4 W 30 43 16 23 - - 0.0
09/07:00am 10.4 4.0 6.9 79 1.8 W 30 48 16 26 - - 0.0
09/06:59am 10.4 3.9 6.7 78 1.9 WNW 30 48 16 26 - - 0.0
09/06:30am 10.3 3.6 7.4 82 1.5 WNW 32 44 17 24 - - 0.0
09/06:00am 10.3 5.3 7.9 85 1.3 WNW 24 39 13 21 - - 0.0
09/05:30am 10.2 6.1 8.5 89 0.9 WNW 20 26 11 14 - - 0.0
09/05:00am 10.5 6.5 8.4 87 1.1 NW 19 24 10 13 - - 0.0
09/04:30am 11.3 6.0 8.3 82 1.6 NW 26 37 14 20 - - 0.0
09/04:00am 11.6 6.7 8.5 81 1.7 NW 24 37 13 20 - - 0.0
09/03:30am 12.0 6.3 8.3 78 2.0 NNW 28 43 15 23 - - 0.0
09/03:00am 12.2 6.9 8.5 78 2.0 NNW 26 35 14 19 - - 0.0
09/02:30am 12.5 6.1 8.6 77 2.1 NW 32 43 17 23 - - 0.0
09/02:00am 12.6 6.6 8.5 76 2.2 NW 30 41 16 22 - - 0.0
09/01:30am 12.5 8.0 8.6 77 2.1 NW 22 32 12 17 - - 0.0
09/01:00am 12.4 7.9 8.7 78 2.0 WNW 22 30 12 16 - - 0.0
09/12:30am 12.4 7.9 8.5 77 2.1 WNW 22 28 12 15 - - 0.0
09/12:00am 12.2 8.2 8.3 77 2.1 NW 19 26 10 14 - - 0.0
 
Date/Time
EST
Temp
°C
App
Temp
°C
Dew
Point
°C
Rel
Hum
%
Delta-T
°C
Wind Press
QNH
hPa
Press
MSL
hPa
Rain since
9am
mm
Dir  Spd
km/h
Gust
km/h
Spd
kts
Gust
kts
08/11:30pm 12.3 8.7 8.4 77 2.1 NW 17 20 9 11 - - 0.0
08/11:00pm 12.4 8.5 8.7 78 2.0 WNW 19 24 10 13 - - 0.0
08/10:30pm 12.1 8.6 8.9 81 1.7 WNW 17 22 9 12 - - 0.0
08/10:00pm 11.7 8.4 9.6 87 1.2 WNW 17 22 9 12 - - 0.0
08/09:30pm 11.9 8.7 10.1 89 1.0 WNW 17 22 9 12 - - 0.0
08/09:00pm 12.0 8.8 10.1 88 1.1 WNW 17 22 9 12 - - 0.0
08/08:30pm 12.2 9.0 10.1 87 1.2 WNW 17 22 9 12 - - 0.0
08/08:00pm 12.1 8.9 10.0 87 1.2 W 17 26 9 14 - - 0.0
08/07:30pm 12.0 9.4 10.7 92 0.7 WNW 15 20 8 11 - - 0.0
08/07:00pm 12.4 9.4 10.6 89 1.0 W 17 24 9 13 - - 0.0
08/06:30pm 12.7 10.0 10.2 85 1.4 WNW 15 24 8 13 - - 0.0
08/06:00pm 12.9 10.1 10.1 83 1.6 W 15 22 8 12 - - 0.0
08/05:30pm 13.5 9.8 10.3 81 1.8 WSW 20 33 11 18 - - 0.0
08/05:00pm 14.1 10.2 9.3 73 2.7 W 20 33 11 18 - - 0.0
08/04:30pm 14.9 11.1 9.1 68 3.2 WSW 19 26 10 14 - - 0.0

Other formats

Comma delimited format used in spreadsheet applications
http://www.bom.gov.au/fwo/IDN60801/IDN60801.95916.axf

JavaScript Object Notation format (JSON) in row-major order
http://www.bom.gov.au/fwo/IDN60801/IDN60801.95916.json

Data quality

Most of these data are generated automatically and are frequently updated. Quality checks on data are not normally performed. It is possible for incorrect values to appear. Refer to information at About Latest Weather Observations and please check the disclaimer before using these data.